Time;durP1;ratioP1;P1;durP2;ratioP2;P2;SDS_P1;SDS_P2;PMS_P1;PMS_P2;Temp;Humidity;BMP_temperature;BMP_pressure;BME280_temperature;BME280_humidity;BME280_pressure;Samples;Min_cycle;Max_cycle;Signal;HPM_P1;HPM_P2
2022/06/10 00:00:13;;;;;;;11.50;5.90;;;13.00;99.90;;;;;;5036387;28;20022;-73
2022/06/10 00:02:43;;;;;;;9.82;4.43;;;12.90;99.90;;;;;;5035706;28;20456;-73
2022/06/10 00:05:13;;;;;;;19.48;5.97;;;13.00;99.90;;;;;;5035595;28;20017;-73
2022/06/10 00:07:39;;;;;;;10.27;4.72;;;13.00;99.90;;;;;;5035810;28;20021;-73
2022/06/10 00:10:05;;;;;;;19.55;5.25;;;12.90;99.90;;;;;;5035809;28;20335;-72
2022/06/10 00:12:31;;;;;;;8.45;4.45;;;13.00;99.90;;;;;;5035467;28;20029;-72
2022/06/10 00:14:56;;;;;;;22.90;5.53;;;13.10;99.90;;;;;;5035304;28;20037;-72
2022/06/10 00:17:22;;;;;;;15.68;4.68;;;13.00;99.90;;;;;;5035378;28;20075;-72
2022/06/10 00:19:48;;;;;;;15.50;5.50;;;13.00;99.90;;;;;;5035616;28;20485;-72
2022/06/10 00:22:13;;;;;;;13.68;5.78;;;13.00;99.90;;;;;;5035477;28;20379;-72
2022/06/10 00:24:39;;;;;;;17.23;5.18;;;13.00;99.90;;;;;;5035344;28;20029;-72
2022/06/10 00:27:05;;;;;;;14.73;5.38;;;13.00;99.90;;;;;;5035128;28;20106;-72
2022/06/10 00:29:31;;;;;;;16.52;5.38;;;13.00;99.90;;;;;;5034966;28;20455;-74
2022/06/10 00:31:58;;;;;;;16.60;5.70;;;13.00;99.90;;;;;;5034054;28;20108;-75
2022/06/10 00:34:23;;;;;;;14.02;5.25;;;12.90;99.90;;;;;;5034355;28;20359;-75
2022/06/10 00:36:49;;;;;;;14.30;5.25;;;13.00;99.90;;;;;;5050428;28;20036;-75
2022/06/10 00:39:14;;;;;;;23.05;5.72;;;12.90;99.90;;;;;;5035055;28;20029;-75
2022/06/10 00:41:42;;;;;;;10.65;5.90;;;12.80;99.90;;;;;;5035224;28;20029;-75
2022/06/10 00:44:30;;;;;;;17.00;6.38;;;12.80;99.90;;;;;;5034964;28;20081;-75
2022/06/10 00:46:57;;;;;;;22.80;5.70;;;12.70;99.90;;;;;;5034993;28;20410;-75
2022/06/10 00:49:23;;;;;;;13.10;5.53;;;12.60;99.90;;;;;;5035149;28;20025;-75
2022/06/10 00:51:54;;;;;;;9.60;6.13;;;12.50;99.90;;;;;;5034888;28;20473;-76
2022/06/10 00:54:37;;;;;;;16.15;5.97;;;12.40;99.90;;;;;;5034839;28;20029;-74
2022/06/10 00:57:14;;;;;;;15.68;6.22;;;12.30;99.90;;;;;;5035103;28;20025;-74
2022/06/10 00:59:48;;;;;;;15.35;5.85;;;12.20;99.90;;;;;;5035009;28;20064;-74
2022/06/10 01:02:21;;;;;;;22.17;5.70;;;12.20;99.90;;;;;;5034868;28;20030;-75
2022/06/10 01:04:47;;;;;;;11.15;5.00;;;12.00;99.90;;;;;;5034701;28;20169;-75
2022/06/10 01:07:17;;;;;;;16.45;5.65;;;12.00;99.90;;;;;;5034837;28;20021;-75
2022/06/10 01:09:44;;;;;;;12.55;6.95;;;11.90;99.90;;;;;;5034644;28;20033;-75
2022/06/10 01:12:35;;;;;;;13.15;5.85;;;11.80;99.90;;;;;;5034751;28;20095;-75
2022/06/10 01:15:13;;;;;;;17.15;7.72;;;11.70;99.90;;;;;;5034777;28;20033;-75
2022/06/10 01:18:09;;;;;;;19.95;7.70;;;11.60;99.90;;;;;;5034372;28;20025;-75
2022/06/10 01:20:56;;;;;;;31.77;8.82;;;11.50;99.90;;;;;;5034713;28;20048;-75
2022/06/10 01:23:43;;;;;;;24.00;9.00;;;11.50;99.90;;;;;;5034513;28;20025;-75
2022/06/10 01:26:20;;;;;;;18.88;7.93;;;11.50;99.90;;;;;;5034291;28;20017;-75
2022/06/10 01:29:04;;;;;;;23.40;7.57;;;11.50;99.90;;;;;;5034408;28;20381;-75
2022/06/10 01:31:55;;;;;;;20.77;9.20;;;11.40;99.90;;;;;;5034320;28;20389;-75
2022/06/10 01:34:28;;;;;;;19.63;7.68;;;11.30;99.90;;;;;;5034311;28;20072;-75
2022/06/10 01:37:09;;;;;;;25.80;8.25;;;11.20;99.90;;;;;;5035299;28;20030;-75
2022/06/10 01:39:40;;;;;;;20.15;6.88;;;11.10;99.90;;;;;;5035679;28;20071;-74
2022/06/10 01:42:31;;;;;;;20.52;7.90;;;10.90;99.90;;;;;;5033593;28;20053;-74
2022/06/10 01:45:23;;;;;;;17.95;7.10;;;10.90;99.90;;;;;;5034277;28;20021;-74
2022/06/10 01:48:07;;;;;;;23.75;8.00;;;10.80;99.90;;;;;;5029276;28;20022;-74
2022/06/10 01:50:55;;;;;;;23.90;7.68;;;10.70;99.90;;;;;;5014640;28;20018;-74
2022/06/10 01:54:00;;;;;;;16.48;7.57;;;10.60;99.90;;;;;;5014257;28;20037;-74
2022/06/10 01:56:34;;;;;;;13.50;5.68;;;10.60;99.90;;;;;;5016379;28;20033;-74
2022/06/10 01:59:13;;;;;;;11.85;5.90;;;10.50;99.90;;;;;;5014540;28;20026;-74
2022/06/10 02:01:43;;;;;;;12.07;5.78;;;10.50;99.90;;;;;;5017236;28;20061;-75
2022/06/10 02:04:30;;;;;;;13.82;6.72;;;10.50;99.90;;;;;;5033993;28;20024;-75
2022/06/10 02:07:10;;;;;;;17.77;6.72;;;10.50;99.90;;;;;;5034037;28;20052;-74
2022/06/10 02:10:13;;;;;;;11.38;6.05;;;10.50;99.90;;;;;;5033728;28;20026;-74
2022/06/10 02:12:46;;;;;;;13.05;6.30;;;10.50;99.90;;;;;;5027124;28;20064;-74
2022/06/10 02:15:20;;;;;;;13.57;6.63;;;10.60;99.90;;;;;;5033995;28;20041;-74
2022/06/10 02:18:09;;;;;;;13.57;6.68;;;10.60;99.90;;;;;;5033760;28;20029;-74
2022/06/10 02:20:40;;;;;;;16.92;7.57;;;10.60;99.90;;;;;;5033358;28;20041;-74
2022/06/10 02:23:10;;;;;;;20.05;7.80;;;10.60;99.90;;;;;;5033607;28;20064;-74
2022/06/10 02:25:43;;;;;;;24.50;7.97;;;10.60;99.90;;;;;;5034205;28;20026;-75
2022/06/10 02:28:15;;;;;;;25.63;9.07;;;10.50;99.90;;;;;;5033495;28;20053;-75
2022/06/10 02:30:49;;;;;;;24.77;9.88;;;10.60;99.90;;;;;;5033783;28;20022;-75
2022/06/10 02:33:14;;;;;;;14.85;8.77;;;10.60;99.90;;;;;;5033825;28;20375;-75
2022/06/10 02:35:58;;;;;;;29.75;10.50;;;10.50;99.90;;;;;;5033608;28;20045;-75
2022/06/10 02:38:52;;;;;;;18.98;8.00;;;10.40;99.90;;;;;;5033489;28;20025;-75
2022/06/10 02:41:46;;;;;;;20.23;7.50;;;10.30;99.90;;;;;;5033825;28;20104;-75
2022/06/10 02:44:29;;;;;;;14.57;7.05;;;10.20;99.90;;;;;;5032179;28;20030;-74
2022/06/10 02:46:54;;;;;;;18.50;7.22;;;10.10;99.90;;;;;;5033650;28;20057;-74
2022/06/10 02:49:20;;;;;;;22.73;8.32;;;10.00;99.90;;;;;;5033415;28;20083;-74
2022/06/10 02:51:48;;;;;;;28.40;10.32;;;9.80;99.90;;;;;;5034607;28;20029;-74
2022/06/10 02:54:20;;;;;;;22.48;9.85;;;9.90;99.90;;;;;;5035916;28;20072;-75
2022/06/10 02:56:45;;;;;;;16.65;9.02;;;9.90;99.90;;;;;;5036997;28;20537;-75
2022/06/10 03:02:04;;;;;;;14.65;7.97;;;9.90;99.90;;;;;;5036812;28;20088;-75
2022/06/10 03:04:48;;;;;;;17.73;6.85;;;9.90;99.90;;;;;;5036919;28;20393;-75
2022/06/10 03:07:46;;;;;;;21.63;8.10;;;9.80;99.90;;;;;;5037233;28;20406;-75
2022/06/10 03:10:29;;;;;;;25.10;8.77;;;9.80;99.90;;;;;;5037077;28;20029;-75
2022/06/10 03:13:31;;;;;;;20.05;8.02;;;9.80;99.90;;;;;;5036888;28;20022;-75
2022/06/10 03:16:16;;;;;;;40.95;12.65;;;9.80;99.90;;;;;;5037145;28;20032;-75
2022/06/10 03:19:05;;;;;;;26.02;9.23;;;9.80;99.90;;;;;;5037352;28;20373;-75
2022/06/10 03:21:44;;;;;;;30.00;9.45;;;9.80;99.90;;;;;;5036844;28;20025;-75
2022/06/10 03:24:39;;;;;;;19.23;8.75;;;9.80;99.90;;;;;;5036921;28;20025;-75
2022/06/10 03:27:26;;;;;;;19.45;7.50;;;9.80;99.90;;;;;;5035273;28;20029;-75
2022/06/10 03:30:08;;;;;;;19.30;7.57;;;9.70;99.90;;;;;;5036686;28;20032;-75
2022/06/10 03:33:00;;;;;;;24.63;8.30;;;9.70;99.90;;;;;;5034247;28;20104;-75
2022/06/10 03:35:37;;;;;;;20.27;7.25;;;9.70;99.90;;;;;;5048726;28;20030;-75
2022/06/10 03:38:03;;;;;;;31.55;8.10;;;9.70;99.90;;;;;;5029411;28;20022;-75
2022/06/10 03:40:31;;;;;;;30.52;8.30;;;9.70;99.90;;;;;;5016532;28;20022;-75
2022/06/10 03:42:59;;;;;;;14.93;7.25;;;9.70;99.90;;;;;;5020148;28;20020;-75
2022/06/10 03:45:53;;;;;;;16.60;8.70;;;9.70;99.90;;;;;;5036028;28;20112;-75
2022/06/10 03:48:21;;;;;;;18.25;8.35;;;9.60;99.90;;;;;;5036832;28;20042;-75
2022/06/10 03:50:48;;;;;;;13.52;8.40;;;9.70;99.90;;;;;;5023214;28;20030;-75
2022/06/10 03:53:20;;;;;;;23.92;8.80;;;9.70;99.90;;;;;;5036147;28;20457;-75
2022/06/10 03:55:47;;;;;;;15.68;8.63;;;9.70;99.90;;;;;;5036157;28;20017;-75
2022/06/10 03:58:13;;;;;;;26.08;8.45;;;9.70;99.90;;;;;;5036413;28;20029;-75
2022/06/10 04:00:39;;;;;;;31.15;10.10;;;9.80;99.90;;;;;;5036996;28;20022;-75
2022/06/10 04:03:05;;;;;;;27.95;11.82;;;9.80;99.90;;;;;;5036498;28;20413;-74
2022/06/10 04:05:30;;;;;;;29.65;10.40;;;10.00;99.90;;;;;;5035968;28;20621;-74
2022/06/10 04:07:56;;;;;;;35.42;11.13;;;10.10;99.90;;;;;;5035786;28;20492;-74
2022/06/10 04:10:24;;;;;;;36.65;11.65;;;10.10;99.90;;;;;;5035744;28;20029;-74
2022/06/10 04:12:50;;;;;;;27.65;12.18;;;10.20;99.90;;;;;;5036225;28;20446;-74
2022/06/10 04:15:16;;;;;;;35.08;10.70;;;10.30;99.90;;;;;;5035680;28;20037;-74
2022/06/10 04:17:47;;;;;;;35.17;12.73;;;10.40;99.90;;;;;;5035461;28;20033;-74
2022/06/10 04:20:20;;;;;;;37.28;13.20;;;10.50;99.90;;;;;;5035722;28;20474;-74
2022/06/10 04:22:46;;;;;;;36.90;14.00;;;10.70;99.90;;;;;;5035759;28;20152;-74
2022/06/10 04:25:12;;;;;;;36.75;13.00;;;10.80;99.90;;;;;;5035883;28;20117;-74
2022/06/10 04:27:38;;;;;;;31.52;12.75;;;10.90;99.90;;;;;;5035176;28;20047;-74
2022/06/10 04:30:06;;;;;;;36.58;14.13;;;11.00;99.90;;;;;;5035608;28;20057;-74
2022/06/10 04:32:32;;;;;;;28.67;13.18;;;11.10;99.90;;;;;;5035502;28;20355;-74
2022/06/10 04:34:58;;;;;;;39.83;14.38;;;11.10;99.90;;;;;;5035531;28;20028;-74
2022/06/10 04:37:24;;;;;;;39.55;14.40;;;11.20;99.90;;;;;;5035294;28;20026;-74
2022/06/10 04:39:50;;;;;;;36.75;14.90;;;11.30;99.90;;;;;;5035175;28;20387;-74
2022/06/10 04:42:15;;;;;;;52.83;16.02;;;11.40;99.90;;;;;;5035152;28;20026;-74
2022/06/10 04:44:41;;;;;;;56.58;17.55;;;11.50;99.90;;;;;;5034985;28;20477;-74
2022/06/10 04:47:07;;;;;;;45.97;17.05;;;11.60;99.90;;;;;;5034848;28;20381;-74
2022/06/10 04:49:36;;;;;;;51.05;18.63;;;11.60;99.90;;;;;;5035656;28;20032;-74
2022/06/10 04:52:03;;;;;;;42.33;16.20;;;11.70;99.90;;;;;;5034922;28;20073;-74
2022/06/10 04:54:29;;;;;;;43.85;14.38;;;11.70;99.90;;;;;;5034843;28;20116;-74
2022/06/10 04:56:55;;;;;;;47.83;16.25;;;11.80;99.90;;;;;;5034687;28;20057;-74
2022/06/10 04:59:20;;;;;;;50.20;18.98;;;11.90;99.90;;;;;;5035164;28;20033;-75
2022/06/10 05:01:46;;;;;;;50.60;16.13;;;12.00;99.90;;;;;;5034813;28;20025;-75
2022/06/10 05:04:13;;;;;;;56.92;15.30;;;12.10;99.90;;;;;;5034892;28;20033;-74
2022/06/10 05:06:39;;;;;;;36.42;15.82;;;12.20;99.90;;;;;;5034614;28;20028;-74
2022/06/10 05:09:05;;;;;;;67.47;18.23;;;12.40;99.90;;;;;;5034767;28;20134;-74
2022/06/10 05:11:30;;;;;;;45.50;16.40;;;12.40;99.90;;;;;;5034540;28;20029;-74
2022/06/10 05:13:57;;;;;;;42.55;16.17;;;12.50;99.90;;;;;;5034544;28;20100;-74
2022/06/10 05:16:23;;;;;;;52.53;16.33;;;12.60;99.90;;;;;;5034272;28;20032;-74
2022/06/10 05:18:49;;;;;;;48.83;15.68;;;12.80;99.90;;;;;;5034813;28;20029;-74
2022/06/10 05:21:14;;;;;;;44.13;16.65;;;12.90;99.90;;;;;;5034714;28;20496;-74
2022/06/10 05:23:44;;;;;;;56.13;17.35;;;13.00;99.90;;;;;;5034314;28;20601;-74
2022/06/10 05:26:11;;;;;;;50.63;14.85;;;13.10;99.90;;;;;;5034503;28;20470;-74
2022/06/10 05:28:36;;;;;;;37.67;14.35;;;13.20;99.90;;;;;;5034633;28;20111;-74
2022/06/10 05:31:02;;;;;;;35.08;13.82;;;13.20;99.90;;;;;;5032982;28;20060;-75
2022/06/10 05:34:44;;;;;;;56.85;13.70;;;13.40;99.90;;;;;;5034481;28;20036;-75
2022/06/10 05:36:13;;;;;;;39.50;11.93;;;13.40;99.90;;;;;;5033966;28;20026;-74
2022/06/10 05:38:38;;;;;;;38.88;10.40;;;13.40;99.90;;;;;;5034421;28;20399;-75
2022/06/10 05:42:04;;;;;;;27.20;9.45;;;13.40;99.90;;;;;;5034221;28;20025;-74
2022/06/10 05:43:49;;;;;;;29.35;9.38;;;13.50;99.90;;;;;;5034076;28;20033;-75
2022/06/10 05:46:15;;;;;;;22.65;9.10;;;13.70;99.90;;;;;;5034263;28;20561;-74
2022/06/10 05:48:42;;;;;;;39.83;8.65;;;13.90;99.90;;;;;;5033984;28;20485;-74
2022/06/10 05:51:08;;;;;;;26.52;7.10;;;14.00;99.90;;;;;;5034074;28;20108;-74
2022/06/10 05:53:33;;;;;;;28.20;8.05;;;14.10;99.90;;;;;;5033989;28;20068;-74
2022/06/10 05:55:59;;;;;;;29.92;8.00;;;14.30;99.90;;;;;;5034197;28;20450;-74
2022/06/10 05:58:25;;;;;;;46.25;7.72;;;14.40;99.90;;;;;;5034001;28;20112;-74
2022/06/10 06:00:50;;;;;;;24.88;7.50;;;14.60;99.90;;;;;;5034380;28;20104;-74
2022/06/10 06:03:16;;;;;;;35.72;6.68;;;14.70;99.90;;;;;;5033795;28;20021;-74
2022/06/10 06:05:42;;;;;;;22.60;5.65;;;14.80;99.90;;;;;;5034112;28;20025;-75
2022/06/10 06:08:09;;;;;;;31.13;6.15;;;14.90;99.90;;;;;;5032463;28;20059;-74
2022/06/10 06:10:34;;;;;;;28.63;5.25;;;15.10;99.90;;;;;;5034067;28;20168;-74
2022/06/10 06:13:00;;;;;;;26.77;4.80;;;15.30;99.90;;;;;;5034059;28;20045;-74
2022/06/10 06:15:26;;;;;;;26.20;6.05;;;15.40;99.90;;;;;;5034052;28;20493;-74
2022/06/10 06:17:53;;;;;;;24.13;4.88;;;15.60;99.90;;;;;;5033689;28;20037;-74
2022/06/10 06:20:21;;;;;;;21.35;4.32;;;15.70;99.90;;;;;;5033810;28;20022;-74
2022/06/10 06:22:46;;;;;;;23.70;4.55;;;15.80;99.90;;;;;;5033842;28;20017;-74
2022/06/10 06:25:15;;;;;;;20.73;4.05;;;16.00;99.90;;;;;;5034855;28;20025;-74
2022/06/10 06:27:43;;;;;;;13.93;3.33;;;16.10;99.90;;;;;;5037560;28;20025;-74
2022/06/10 06:30:19;;;;;;;23.85;4.75;;;16.30;99.90;;;;;;5038553;28;20431;-72
2022/06/10 06:32:45;;;;;;;24.80;4.70;;;16.30;99.90;;;;;;5037582;28;20026;-72
2022/06/10 06:35:11;;;;;;;20.00;3.95;;;16.40;99.90;;;;;;5037475;28;20140;-72
2022/06/10 06:37:37;;;;;;;23.85;4.38;;;16.50;99.90;;;;;;5037042;28;20033;-72
2022/06/10 06:40:03;;;;;;;15.07;3.17;;;16.60;99.90;;;;;;5037276;28;20026;-72
2022/06/10 06:42:29;;;;;;;21.17;5.15;;;16.80;99.90;;;;;;5037336;28;20029;-72
2022/06/10 06:44:54;;;;;;;20.13;3.03;;;16.90;99.90;;;;;;5037666;28;20479;-70
2022/06/10 06:47:20;;;;;;;13.82;3.60;;;16.90;99.90;;;;;;5037086;28;20018;-70
2022/06/10 06:49:46;;;;;;;16.65;3.47;;;17.00;99.90;;;;;;5037061;28;20449;-70
2022/06/10 06:52:11;;;;;;;20.20;4.55;;;17.20;99.90;;;;;;5036765;28;20525;-70
2022/06/10 06:54:37;;;;;;;21.98;3.33;;;17.30;99.90;;;;;;5036922;28;20551;-70
2022/06/10 06:57:04;;;;;;;26.67;3.28;;;17.30;99.90;;;;;;5036784;28;20022;-70
2022/06/10 06:59:31;;;;;;;22.10;3.15;;;17.40;99.90;;;;;;5037201;28;20140;-70
2022/06/10 07:01:56;;;;;;;18.58;3.58;;;17.40;99.90;;;;;;5036962;28;20548;-70
2022/06/10 07:04:22;;;;;;;23.75;4.22;;;17.50;99.90;;;;;;5036870;28;20037;-70
2022/06/10 07:06:47;;;;;;;19.55;3.40;;;17.70;99.90;;;;;;5036774;28;20070;-69
2022/06/10 07:09:13;;;;;;;17.45;3.63;;;17.70;99.90;;;;;;5036913;28;20025;-69
2022/06/10 07:11:39;;;;;;;17.02;3.35;;;17.80;99.90;;;;;;5036654;28;20030;-69
2022/06/10 07:14:05;;;;;;;23.17;4.53;;;17.90;99.90;;;;;;5036924;28;20077;-69
2022/06/10 07:16:31;;;;;;;15.40;2.63;;;18.00;99.90;;;;;;5036575;28;20033;-69
2022/06/10 07:18:56;;;;;;;15.85;3.38;;;18.10;99.90;;;;;;5036986;28;20037;-69
2022/06/10 07:21:22;;;;;;;19.17;3.17;;;18.10;99.90;;;;;;5036440;28;20052;-69
2022/06/10 07:23:48;;;;;;;16.13;3.13;;;18.20;99.90;;;;;;5036394;28;20389;-69
2022/06/10 07:26:15;;;;;;;25.15;4.00;;;18.20;99.90;;;;;;5036472;28;20021;-69
2022/06/10 07:28:41;;;;;;;19.30;3.60;;;18.40;99.90;;;;;;5051830;28;20030;-69
2022/06/10 07:31:06;;;;;;;15.25;3.05;;;18.50;99.90;;;;;;5036478;28;20053;-69
2022/06/10 07:33:35;;;;;;;16.73;3.28;;;18.60;99.90;;;;;;5067124;28;20393;-70
2022/06/10 07:36:01;;;;;;;13.25;2.45;;;18.60;99.90;;;;;;5036207;28;20021;-69
2022/06/10 07:38:27;;;;;;;21.85;2.60;;;18.70;99.90;;;;;;5034768;28;20100;-69
2022/06/10 07:43:38;;;;;;;13.88;2.85;;;18.90;99.90;;;;;;5036202;28;20056;-70
2022/06/10 07:46:05;;;;;;;15.95;2.55;;;18.90;99.90;;;;;;5035929;28;20075;-70
2022/06/10 07:48:31;;;;;;;15.57;2.75;;;19.00;99.90;;;;;;5035797;28;20440;-69
2022/06/10 07:50:57;;;;;;;20.63;3.08;;;18.90;99.90;;;;;;5035983;28;20072;-70
2022/06/10 07:53:22;;;;;;;20.38;3.40;;;18.90;99.90;;;;;;5035743;28;20367;-70
2022/06/10 07:55:48;;;;;;;12.52;2.63;;;19.00;99.90;;;;;;5036466;28;20030;-71
2022/06/10 07:58:17;;;;;;;16.67;3.55;;;18.90;99.90;;;;;;5035872;28;20025;-70
2022/06/10 08:00:43;;;;;;;12.05;3.17;;;19.00;99.90;;;;;;5035647;28;20025;-70
2022/06/10 08:03:09;;;;;;;13.55;2.80;;;19.00;99.90;;;;;;5035876;28;20354;-70
2022/06/10 08:05:35;;;;;;;13.85;2.50;;;19.10;99.90;;;;;;5035755;28;20037;-70
2022/06/10 08:08:02;;;;;;;21.60;3.60;;;19.10;99.90;;;;;;5035507;28;20429;-70
2022/06/10 08:10:35;;;;;;;13.98;3.28;;;19.00;99.90;;;;;;5035778;28;20355;-70
2022/06/10 08:13:00;;;;;;;21.05;3.75;;;18.80;99.90;;;;;;5035563;28;20026;-70
2022/06/10 08:15:27;;;;;;;17.65;2.95;;;19.00;99.90;;;;;;5035260;28;20036;-71
2022/06/10 08:17:56;;;;;;;15.30;2.47;;;19.00;99.90;;;;;;5035138;28;20347;-70
2022/06/10 08:22:32;;;;;;;16.60;3.15;;;19.00;99.90;;;;;;5035340;28;20030;-70
2022/06/10 08:23:11;;;;;;;20.27;3.80;;;19.00;99.90;;;;;;5035073;28;20030;-71
2022/06/10 08:25:37;;;;;;;15.00;3.00;;;19.00;99.90;;;;;;5035521;28;20040;-70
2022/06/10 08:28:02;;;;;;;19.58;2.88;;;19.00;99.90;;;;;;5034946;28;20029;-69
2022/06/10 08:30:28;;;;;;;17.80;3.00;;;19.30;99.90;;;;;;5035268;28;20040;-70
2022/06/10 08:32:55;;;;;;;16.88;3.15;;;19.20;99.90;;;;;;5035409;28;20128;-69
2022/06/10 08:35:20;;;;;;;20.67;3.50;;;19.50;99.90;;;;;;5035158;28;20057;-70
2022/06/10 08:37:46;;;;;;;19.30;3.63;;;19.40;99.90;;;;;;5034865;28;20030;-70
2022/06/10 08:40:26;;;;;;;22.42;4.43;;;19.10;99.90;;;;;;5034902;28;20033;-69
2022/06/10 08:42:56;;;;;;;20.45;4.05;;;19.20;99.90;;;;;;5035131;28;20516;-69
2022/06/10 08:45:44;;;;;;;24.27;3.53;;;19.10;99.90;;;;;;5034720;28;20057;-69
2022/06/10 08:48:20;;;;;;;21.90;3.30;;;18.50;99.90;;;;;;5035013;28;20121;-70
2022/06/10 08:51:00;;;;;;;24.10;4.20;;;18.40;99.90;;;;;;5036233;28;20021;-69
2022/06/10 08:53:38;;;;;;;21.65;3.85;;;18.60;99.90;;;;;;5035950;28;20037;-69
2022/06/10 08:56:27;;;;;;;25.60;4.28;;;19.00;99.90;;;;;;5034872;28;20022;-69
2022/06/10 08:58:58;;;;;;;24.95;4.80;;;19.10;99.90;;;;;;5034903;28;20026;-70
2022/06/10 09:01:24;;;;;;;23.80;4.03;;;19.40;99.90;;;;;;5034569;28;20028;-70
2022/06/10 09:04:07;;;;;;;18.17;3.85;;;19.70;99.90;;;;;;5034691;28;20026;-70
2022/06/10 09:06:50;;;;;;;23.13;3.95;;;19.60;99.90;;;;;;5034608;28;20470;-70
2022/06/10 09:09:19;;;;;;;23.25;3.65;;;19.50;99.90;;;;;;5034515;28;20060;-70
2022/06/10 09:11:51;;;;;;;25.83;3.65;;;19.30;99.90;;;;;;5034416;28;20025;-70
2022/06/10 09:14:23;;;;;;;20.85;3.85;;;18.90;99.90;;;;;;5033162;28;20021;-70
2022/06/10 09:17:18;;;;;;;22.55;4.47;;;18.80;99.90;;;;;;5034525;28;20045;-70
2022/06/10 09:20:08;;;;;;;18.00;3.58;;;18.80;99.90;;;;;;5034202;28;20029;-70
2022/06/10 09:22:33;;;;;;;18.85;3.58;;;19.00;99.90;;;;;;5034418;28;20055;-70
2022/06/10 09:25:06;;;;;;;17.77;3.72;;;19.20;99.90;;;;;;5033983;28;20025;-70
2022/06/10 09:27:38;;;;;;;30.95;5.50;;;19.40;99.90;;;;;;5034144;28;20505;-70
2022/06/10 09:30:07;;;;;;;32.65;4.38;;;19.60;99.90;;;;;;5034203;28;20096;-70
2022/06/10 09:32:51;;;;;;;18.13;3.58;;;19.70;99.90;;;;;;5033855;28;20095;-70
2022/06/10 09:35:22;;;;;;;19.45;3.55;;;19.70;99.90;;;;;;5034654;28;20025;-70
2022/06/10 09:38:10;;;;;;;20.38;4.53;;;19.70;99.90;;;;;;5034213;28;20025;-70
2022/06/10 09:40:54;;;;;;;21.63;3.95;;;19.50;99.90;;;;;;5034047;28;20037;-70
2022/06/10 09:43:42;;;;;;;14.60;3.70;;;19.20;99.90;;;;;;5034277;28;20079;-70
2022/06/10 09:46:34;;;;;;;21.33;4.05;;;19.00;99.90;;;;;;5033860;28;20039;-70
2022/06/10 09:49:33;;;;;;;15.68;2.85;;;18.80;99.90;;;;;;5032995;28;20029;-70
2022/06/10 09:52:31;;;;;;;21.40;3.53;;;18.60;99.90;;;;;;5034106;28;20028;-70
2022/06/10 09:55:35;;;;;;;18.05;3.58;;;18.50;99.90;;;;;;5021866;28;20037;-70
2022/06/10 09:58:38;;;;;;;17.95;3.15;;;18.40;99.90;;;;;;5033623;28;20033;-70
2022/06/10 10:01:34;;;;;;;18.50;2.72;;;18.80;99.90;;;;;;5033659;28;20525;-70
2022/06/10 10:04:46;;;;;;;13.55;3.17;;;18.90;99.90;;;;;;5033024;28;20041;-70
2022/06/10 10:07:43;;;;;;;23.60;3.58;;;19.10;99.90;;;;;;5032389;28;20042;-70
2022/06/10 10:10:20;;;;;;;21.38;3.67;;;19.60;99.90;;;;;;5033858;28;20021;-70
2022/06/10 10:13:22;;;;;;;19.65;3.53;;;19.50;99.90;;;;;;5033428;28;20079;-70
2022/06/10 10:16:13;;;;;;;15.10;2.95;;;19.70;99.90;;;;;;5032318;28;20022;-70
2022/06/10 10:18:42;;;;;;;25.63;3.85;;;19.70;99.90;;;;;;5033735;28;20478;-70
2022/06/10 10:21:24;;;;;;;27.02;4.70;;;19.60;99.90;;;;;;5033741;28;20013;-70
2022/06/10 10:23:52;;;;;;;20.60;4.07;;;19.90;99.90;;;;;;5033711;28;20387;-70
2022/06/10 10:26:33;;;;;;;24.33;4.22;;;20.30;99.90;;;;;;5033263;28;20022;-70
2022/06/10 10:28:58;;;;;;;24.83;3.30;;;20.30;99.90;;;;;;5033517;28;20033;-70
2022/06/10 10:31:32;;;;;;;19.83;3.65;;;20.40;99.90;;;;;;5027647;28;20587;-71
2022/06/10 10:34:02;;;;;;;22.52;3.10;;;21.00;99.90;;;;;;5023662;28;20037;-70
2022/06/10 10:36:28;;;;;;;17.00;3.65;;;20.90;99.90;;;;;;5031976;28;20027;-69
2022/06/10 10:38:55;;;;;;;19.55;3.58;;;20.90;99.90;;;;;;5030116;28;20120;-69
2022/06/10 10:41:34;;;;;;;16.65;2.95;;;20.70;99.90;;;;;;5026598;28;20094;-69
2022/06/10 10:44:20;;;;;;;13.32;2.70;;;20.30;99.90;;;;;;5021993;28;20033;-70
2022/06/10 10:47:10;;;;;;;12.85;3.17;;;20.70;99.90;;;;;;5026322;28;20079;-70
2022/06/10 10:49:49;;;;;;;21.08;3.75;;;20.80;99.90;;;;;;5030036;28;20054;-70
2022/06/10 10:52:40;;;;;;;15.52;3.47;;;20.80;99.90;;;;;;5026341;28;20022;-70
2022/06/10 10:55:22;;;;;;;25.13;4.60;;;21.00;99.90;;;;;;5026676;28;20032;-69
2022/06/10 10:58:18;;;;;;;16.30;3.45;;;20.90;99.90;;;;;;5033084;28;20493;-70
2022/06/10 11:00:52;;;;;;;21.10;3.53;;;20.90;99.90;;;;;;5020080;28;20045;-70
2022/06/10 11:03:41;;;;;;;28.15;3.92;;;21.00;99.90;;;;;;5033296;28;20028;-70
2022/06/10 11:06:29;;;;;;;22.55;4.10;;;21.10;99.90;;;;;;5033448;28;20396;-70
2022/06/10 11:08:59;;;;;;;24.02;3.72;;;21.00;99.90;;;;;;5033541;28;20045;-71
2022/06/10 11:11:31;;;;;;;22.58;3.75;;;20.90;99.90;;;;;;5032990;28;20036;-70
2022/06/10 11:14:01;;;;;;;19.87;4.03;;;20.40;99.90;;;;;;5036549;28;20025;-71
2022/06/10 11:16:36;;;;;;;17.20;3.72;;;20.10;99.90;;;;;;5038670;28;20347;-71
2022/06/10 11:19:23;;;;;;;19.92;3.95;;;20.10;99.90;;;;;;5037418;28;20096;-71
2022/06/10 11:21:56;;;;;;;18.50;4.00;;;20.00;99.90;;;;;;5036878;28;20029;-71
2022/06/10 11:24:38;;;;;;;21.17;3.35;;;19.80;99.90;;;;;;5036607;28;20030;-70
2022/06/10 11:27:39;;;;;;;14.40;2.95;;;19.80;99.90;;;;;;5036731;28;20509;-70
2022/06/10 11:30:10;;;;;;;22.58;3.58;;;19.70;99.90;;;;;;5036549;28;20030;-71
2022/06/10 11:32:43;;;;;;;24.98;3.78;;;19.40;99.90;;;;;;5035922;28;20612;-68
2022/06/10 11:35:40;;;;;;;20.15;3.85;;;19.40;99.90;;;;;;5036463;28;20037;-68
2022/06/10 11:38:21;;;;;;;24.92;5.07;;;19.40;99.90;;;;;;5036140;28;20120;-68
2022/06/10 11:40:46;;;;;;;34.40;5.20;;;19.30;99.90;;;;;;5035968;28;20040;-68
2022/06/10 11:43:22;;;;;;;17.77;3.70;;;19.20;99.90;;;;;;5035729;28;20029;-68
2022/06/10 11:45:56;;;;;;;15.75;4.65;;;19.40;99.90;;;;;;5034403;28;20053;-69
2022/06/10 11:48:28;;;;;;;26.17;4.80;;;19.60;99.90;;;;;;5035494;28;20035;-68
2022/06/10 11:51:02;;;;;;;26.58;5.45;;;19.70;99.90;;;;;;5035637;28;20029;-68
2022/06/10 11:53:37;;;;;;;25.38;4.30;;;19.60;99.90;;;;;;5035754;28;20074;-68
2022/06/10 12:01:47;;;;;;;33.83;5.82;;;20.10;99.90;;;;;;5035701;28;20052;-68
2022/06/10 12:04:21;;;;;;;;;;;20.00;99.90;;;;;;5036020;28;20022;-68
2022/06/10 12:06:51;;;;;;;24.55;5.93;;;20.50;99.90;;;;;;5035377;28;19908;-68
2022/06/10 12:09:40;;;;;;;16.83;4.28;;;20.70;99.90;;;;;;5035600;28;20105;-68
2022/06/10 12:12:20;;;;;;;27.17;4.85;;;21.20;99.90;;;;;;5035045;28;20064;-68
2022/06/10 12:14:55;;;;;;;26.17;3.92;;;21.30;99.90;;;;;;5035556;28;20053;-68
2022/06/10 12:17:30;;;;;;;23.73;3.95;;;21.20;99.90;;;;;;5035074;28;20075;-68
2022/06/10 12:20:20;;;;;;;21.13;4.07;;;21.60;99.90;;;;;;5035686;28;20025;-68
2022/06/10 12:22:46;;;;;;;22.33;4.55;;;21.70;99.90;;;;;;5034979;28;20397;-68
2022/06/10 12:25:34;;;;;;;17.52;4.05;;;21.60;99.90;;;;;;5034237;28;20445;-68
2022/06/10 12:28:23;;;;;;;24.83;5.07;;;21.60;99.90;;;;;;5034837;28;20049;-68
2022/06/10 12:31:00;;;;;;;27.75;4.68;;;22.10;99.90;;;;;;5034904;28;20030;-68
2022/06/10 12:33:44;;;;;;;15.43;3.70;;;22.00;99.90;;;;;;5035133;28;20029;-68
2022/06/10 12:36:14;;;;;;;;;;;21.30;99.90;;;;;;5035207;28;20462;-68
2022/06/10 12:38:41;;;;;;;20.48;4.75;;;21.00;99.90;;;;;;5034875;28;19905;-68
2022/06/10 12:41:18;;;;;;;26.92;4.32;;;20.80;99.90;;;;;;5034917;28;20034;-68
2022/06/10 12:43:49;;;;;;;21.98;5.80;;;20.40;99.90;;;;;;5034876;28;20025;-68
2022/06/10 12:46:32;;;;;;;25.10;4.40;;;20.30;99.90;;;;;;5034513;28;20048;-70
2022/06/10 12:49:07;;;;;;;25.88;4.95;;;20.20;99.90;;;;;;5034818;28;20482;-68
2022/06/10 12:51:43;;;;;;;26.48;5.05;;;19.70;99.90;;;;;;5034800;28;20470;-69
2022/06/10 12:54:24;;;;;;;19.90;4.75;;;19.60;99.90;;;;;;5034417;28;20022;-68
2022/06/10 12:57:24;;;;;;;23.40;5.63;;;19.40;99.90;;;;;;5034399;28;20022;-68
2022/06/10 12:59:50;;;;;;;24.95;5.80;;;19.70;99.90;;;;;;5034657;28;20504;-68
2022/06/10 13:02:44;;;;;;;18.15;5.97;;;19.50;99.90;;;;;;5034162;28;20037;-68
2022/06/10 13:05:32;;;;;;;22.40;5.40;;;19.60;99.90;;;;;;5015323;28;20045;-69
2022/06/10 13:07:59;;;;;;;29.95;7.03;;;19.50;99.90;;;;;;5022957;28;20025;-69
2022/06/10 13:10:33;;;;;;;19.95;5.47;;;19.30;99.90;;;;;;5024899;28;20034;-70
2022/06/10 13:13:23;;;;;;;32.47;6.38;;;19.20;99.90;;;;;;5027911;28;20064;-68
2022/06/10 13:15:54;;;;;;;24.10;5.90;;;19.10;99.90;;;;;;5025823;28;20058;-68
2022/06/10 13:18:34;;;;;;;23.38;5.63;;;18.90;99.90;;;;;;5031723;28;20053;-69
2022/06/10 13:21:13;;;;;;;19.35;5.25;;;18.80;99.90;;;;;;5030047;28;20482;-68
2022/06/10 13:24:15;;;;;;;19.73;5.53;;;18.70;99.90;;;;;;5031303;28;20021;-68